Madison, SD

1:34 AM CDT on May 30, 2017 (GMT -0500)
Madison Municipal

Weather History for KMDS - July, 2013

Change the Weather History Date:

Tuesday, July 9, 2013

  Actual Average Record
Temperature  
Mean Temperature 72 °F -  
Max Temperature 80 °F 83 °F 86 °F (2011)
Min Temperature 64 °F 60 °F 55 °F (2014)
Cooling Degree Days 7    
Growing Degree Days 22 (Base 50)    
Moisture  
Dew Point 69 °F    
Average Humidity 88    
Maximum Humidity 100    
Minimum Humidity 61    
Precipitation  
Precipitation 0.79 in - - ()
Sea Level Pressure  
Sea Level Pressure 29.96 in    
Wind  
Wind Speed 10 mph (WNW)    
Max Wind Speed 28 mph    
Max Gust Speed 36 mph    
Visibility 10 miles    
Events Rain , Thunderstorm    
Averages and records for this station are not official NWS values.
T = Trace of Precipitation, MM = Missing Value Source: NWS Daily Summary

Daily Weather History Graph

Daily Weather History Graph

Search for Another Location

Airport or City:

Trip Planner

Search our weather history database for the weather conditions in past years. The results will help you decide how hot, cold, wet, or windy it might be!

Date:

Astronomy

Jul. 09, 2013 Rise Set
Actual Time 5:54 AM CDT 9:12 PM CDT
Civil Twilight 5:19 AM CDT 9:47 PM CDT
Nautical Twilight 4:32 AM CDT 10:33 PM CDT
Astronomical Twilight 3:35 AM CDT 11:30 PM CDT
Moon 7:25 AM CDT (7/9) 9:44 PM CDT (7/9)
Length of Visible Light 16h 28m
Length of Day
15h 17m
New Moon, 2% of the Moon is Illuminated
Jul 9
New Moon
Jul 15
First Quarter
Jul 22
Full
Jul 29
Last Quarter
Aug 6
New

Hourly Weather History & Observations

Time (CDT) Temp. Heat Index Dew Point Humidity Pressure Visibility Wind Dir Wind Speed Gust Speed Precip Events Conditions
12:10 AM 71.6 °F - 71.6 °F 100% 29.94 in 10.0 mi ESE 3.5 mph - N/A   Clear
12:30 AM 71.6 °F - 71.6 °F 100% 29.93 in 10.0 mi ESE 6.9 mph - N/A   Clear
12:50 AM 71.6 °F - 71.6 °F 100% 29.92 in 10.0 mi SE 10.4 mph - N/A   Clear
1:10 AM 73.4 °F - 73.4 °F 100% 29.92 in 10.0 mi SSE 12.7 mph - N/A   Clear
1:30 AM 75.2 °F - 75.2 °F 100% 29.92 in 10.0 mi SSE 10.4 mph - N/A   Clear
1:50 AM 73.4 °F - 73.4 °F 100% 29.91 in 10.0 mi SSE 8.1 mph - N/A   Clear
2:10 AM 73.4 °F - 73.4 °F 100% 29.88 in 10.0 mi SSE 8.1 mph - N/A   Clear
2:30 AM 71.6 °F - 71.6 °F 100% 29.87 in 10.0 mi SE 9.2 mph - N/A   Clear
2:50 AM 71.6 °F - 71.6 °F 100% 29.86 in 10.0 mi SSE 10.4 mph - N/A   Clear
3:10 AM 73.4 °F - 73.4 °F 100% 29.86 in 10.0 mi SSE 9.2 mph - N/A   Clear
3:30 AM 73.4 °F - 73.4 °F 100% 29.87 in 10.0 mi South 6.9 mph - N/A Thunderstorm Mostly Cloudy
3:50 AM 71.6 °F - 71.6 °F 100% 29.92 in 10.0 mi SW 8.1 mph - N/A Thunderstorm Thunderstorm
4:10 AM 71.6 °F - 71.6 °F 100% 29.94 in 2.0 mi WSW 27.6 mph 35.7 mph 0.19 in Rain , Thunderstorm Heavy Rain
4:30 AM 68.0 °F - 68.0 °F 100% 30.01 in 3.0 mi WNW 24.2 mph 32.2 mph 0.48 in Rain , Thunderstorm Heavy Rain
4:50 AM 64.4 °F - 64.4 °F 100% 30.01 in 2.5 mi NNE 11.5 mph 25.3 mph 0.74 in Rain , Thunderstorm Heavy Thunderstorms and Rain
5:10 AM 64.4 °F - 64.4 °F 100% 29.91 in 10.0 mi East 21.9 mph 26.5 mph 0.04 in Rain Rain
5:30 AM 64.4 °F - 64.4 °F 100% 29.90 in 10.0 mi East 13.8 mph 24.2 mph 0.05 in Thunderstorm Overcast
5:50 AM 64.4 °F - 64.4 °F 100% 29.88 in 10.0 mi East 9.2 mph - 0.05 in   Mostly Cloudy
6:10 AM 64.4 °F - 64.4 °F 100% 29.89 in 10.0 mi Calm Calm - N/A   Clear
6:30 AM 64.4 °F - 64.4 °F 100% 29.88 in 10.0 mi SSW 6.9 mph - N/A   Partly Cloudy
6:50 AM 64.4 °F - 64.4 °F 100% 29.89 in 10.0 mi SSW 4.6 mph - N/A   Clear
7:10 AM 64.4 °F - 64.4 °F 100% 29.88 in 10.0 mi SW 6.9 mph - N/A   Clear
7:30 AM 66.2 °F - 66.2 °F 100% 29.87 in 10.0 mi SSW 12.7 mph - N/A   Clear
7:50 AM 66.2 °F - 66.2 °F 100% 29.89 in 10.0 mi SSW 11.5 mph - N/A   Clear
8:10 AM 68.0 °F - 68.0 °F 100% 29.89 in 10.0 mi SSW 10.4 mph - N/A   Clear
8:30 AM 68.0 °F - 68.0 °F 100% 29.90 in 10.0 mi SSW 9.2 mph - N/A   Clear
8:50 AM 71.6 °F - 71.6 °F 100% 29.91 in 10.0 mi SSW 10.4 mph - N/A   Clear
9:10 AM 73.4 °F - 71.6 °F 94% 29.92 in 10.0 mi WSW 10.4 mph - N/A   Clear
9:30 AM 75.2 °F - 71.6 °F 89% 29.92 in 10.0 mi WSW 8.1 mph - N/A   Clear
9:50 AM 75.2 °F - 71.6 °F 89% 29.93 in 10.0 mi West 9.2 mph - N/A   Clear
10:10 AM 77.0 °F - 71.6 °F 83% 29.94 in 10.0 mi WNW 13.8 mph 17.3 mph N/A   Clear
10:30 AM 77.0 °F - 71.6 °F 83% 29.95 in 10.0 mi WNW 16.1 mph - N/A   Clear
10:50 AM 77.0 °F - 71.6 °F 83% 29.96 in 10.0 mi WNW 15.0 mph 24.2 mph N/A   Partly Cloudy
11:10 AM 75.2 °F - 71.6 °F 89% 29.96 in 10.0 mi WNW 16.1 mph - N/A   Scattered Clouds
11:30 AM 77.0 °F - 71.6 °F 83% 29.97 in 10.0 mi NW 18.4 mph 23.0 mph N/A   Scattered Clouds
11:50 AM 75.2 °F - 71.6 °F 89% 29.97 in 10.0 mi WNW 16.1 mph 23.0 mph N/A   Scattered Clouds
12:10 PM 75.2 °F - 69.8 °F 83% 29.97 in 10.0 mi NW 20.7 mph 24.2 mph N/A   Scattered Clouds
12:30 PM 75.2 °F - 71.6 °F 89% 29.97 in 10.0 mi WNW 16.1 mph 23.0 mph N/A   Partly Cloudy
12:50 PM 75.2 °F - 71.6 °F 89% 29.97 in 10.0 mi WNW 15.0 mph - N/A   Clear
1:10 PM 75.2 °F - 69.8 °F 83% 29.97 in 10.0 mi NW 17.3 mph 21.9 mph N/A   Clear
1:30 PM 77.0 °F - 68.0 °F 74% 29.97 in 10.0 mi NW 16.1 mph 21.9 mph N/A   Clear
1:50 PM 77.0 °F - 68.0 °F 74% 29.98 in 10.0 mi NW 16.1 mph 21.9 mph N/A   Clear
2:10 PM 77.0 °F - 68.0 °F 74% 29.98 in 10.0 mi WNW 15.0 mph 21.9 mph N/A   Clear
2:30 PM 77.0 °F - 68.0 °F 74% 29.98 in 10.0 mi NW 17.3 mph 21.9 mph N/A   Clear
2:50 PM 77.0 °F - 68.0 °F 74% 29.98 in 10.0 mi NW 13.8 mph 23.0 mph N/A   Clear
3:10 PM 80.6 °F 83.2 °F 68.0 °F 65% 29.98 in 10.0 mi NW 16.1 mph 21.9 mph N/A   Clear
3:30 PM 80.6 °F 83.2 °F 68.0 °F 65% 29.99 in 10.0 mi NW 12.7 mph 21.9 mph N/A   Clear
3:50 PM 78.8 °F - 68.0 °F 69% 29.99 in 10.0 mi NNW 12.7 mph 20.7 mph N/A   Clear
4:10 PM 78.8 °F - 66.2 °F 65% 29.99 in 10.0 mi NNW 16.1 mph - N/A   Clear
4:30 PM 80.6 °F 82.7 °F 66.2 °F 61% 29.99 in 10.0 mi NW 16.1 mph 19.6 mph N/A   Clear
4:50 PM 78.8 °F - 66.2 °F 65% 29.99 in 10.0 mi NW 17.3 mph - N/A   Clear
5:10 PM 80.6 °F 82.7 °F 66.2 °F 61% 29.99 in 10.0 mi NW 13.8 mph 19.6 mph N/A   Clear
5:30 PM 80.6 °F 82.7 °F 66.2 °F 61% 29.99 in 10.0 mi NW 13.8 mph - N/A   Clear
5:50 PM 80.6 °F 82.7 °F 66.2 °F 61% 29.99 in 10.0 mi NNW 13.8 mph - N/A   Clear
6:10 PM 78.8 °F - 66.2 °F 65% 29.99 in 10.0 mi NNW 10.4 mph - N/A   Clear
6:30 PM 78.8 °F - 66.2 °F 65% 29.99 in 10.0 mi NNW 11.5 mph - N/A   Clear
6:50 PM 78.8 °F - 66.2 °F 65% 29.99 in 10.0 mi NNW 10.4 mph - N/A   Clear
7:10 PM 77.0 °F - 66.2 °F 69% 29.99 in 10.0 mi NNW 8.1 mph - N/A   Clear
7:30 PM 77.0 °F - 66.2 °F 69% 29.99 in 10.0 mi NNW 8.1 mph - N/A   Clear
7:50 PM 75.2 °F - 68.0 °F 78% 29.99 in 10.0 mi NNW 5.8 mph - N/A   Clear
8:10 PM 75.2 °F - 71.6 °F 89% 30.00 in 10.0 mi NW 5.8 mph - N/A   Clear
8:30 PM 73.4 °F - 73.4 °F 100% 30.00 in 10.0 mi NW 5.8 mph - N/A   Clear
8:50 PM 71.6 °F - 71.6 °F 100% 30.01 in 10.0 mi NW 6.9 mph - N/A   Clear
9:10 PM 69.8 °F - 69.8 °F 100% 30.01 in 10.0 mi NW 5.8 mph - N/A   Clear
9:30 PM 71.6 °F - 69.8 °F 94% 30.02 in 10.0 mi NNW 6.9 mph - N/A   Clear
9:50 PM 68.0 °F - 68.0 °F 100% 30.03 in 10.0 mi NNW 4.6 mph - N/A   Clear
10:10 PM 68.0 °F - 68.0 °F 100% 30.04 in 10.0 mi NW 5.8 mph - N/A   Clear
10:30 PM 68.0 °F - 68.0 °F 100% 30.05 in 10.0 mi NW 6.9 mph - N/A   Clear
10:50 PM 68.0 °F - 68.0 °F 100% 30.05 in 10.0 mi WNW 4.6 mph - N/A   Clear
11:10 PM 66.2 °F - 66.2 °F 100% 30.05 in 10.0 mi WNW 5.8 mph - N/A   Clear
11:30 PM 66.2 °F - 66.2 °F 100% 30.05 in 10.0 mi NNW 6.9 mph - N/A   Clear
11:50 PM 66.2 °F - 66.2 °F 100% 30.06 in 10.0 mi North 6.9 mph - N/A   Clear